Time;durP1;ratioP1;P1;durP2;ratioP2;P2;SDS_P1;SDS_P2;PMS_P1;PMS_P2;Temp;Humidity;BMP_temperature;BMP_pressure;BME280_temperature;BME280_humidity;BME280_pressure;Samples;Min_cycle;Max_cycle;Signal;HPM_P1;HPM_P2
2023/05/13 00:01:30;;;;;;;5.20;3.83;;;;;;;16.24;53.44;101712.00;4978206;28;20498;-63
2023/05/13 00:03:55;;;;;;;5.25;3.83;;;;;;;16.17;53.50;101711.69;4964473;28;20038;-63
2023/05/13 00:06:21;;;;;;;4.75;3.70;;;;;;;16.09;53.15;101716.97;4980515;28;20095;-68
2023/05/13 00:08:46;;;;;;;6.57;3.47;;;;;;;15.99;54.03;101712.56;4965341;28;20035;-67
2023/05/13 00:11:11;;;;;;;5.95;3.78;;;;;;;15.91;53.99;101725.94;4963647;28;20046;-63
2023/05/13 00:13:37;;;;;;;10.85;4.28;;;;;;;15.88;54.06;101726.22;4962291;28;20502;-63
2023/05/13 00:16:02;;;;;;;6.00;3.70;;;;;;;15.91;54.55;101720.53;4977579;28;20025;-63
2023/05/13 00:18:28;;;;;;;6.22;3.78;;;;;;;15.90;54.27;101719.69;4977678;28;20046;-63
2023/05/13 00:20:53;;;;;;;4.38;3.80;;;;;;;15.91;53.74;101713.28;4960982;28;20410;-63
2023/05/13 00:23:19;;;;;;;7.45;4.25;;;;;;;15.93;54.26;101715.84;4977127;28;20034;-63
2023/05/13 00:25:44;;;;;;;5.35;4.35;;;;;;;15.91;54.62;101717.84;4977168;28;20041;-63
2023/05/13 00:28:12;;;;;;;5.00;3.88;;;;;;;15.85;54.74;101710.28;4976887;28;20030;-63
2023/05/13 00:30:38;;;;;;;4.88;3.75;;;;;;;15.79;53.97;101716.25;4995050;28;20042;-63
2023/05/13 00:33:05;;;;;;;7.70;4.45;;;;;;;15.74;54.35;101709.41;4976976;28;20121;-63
2023/05/13 00:35:30;;;;;;;5.68;4.18;;;;;;;15.72;53.61;101708.72;4994466;28;20030;-63
2023/05/13 00:37:56;;;;;;;6.78;4.95;;;;;;;15.69;53.91;101714.41;4996512;28;20026;-63
2023/05/13 00:40:23;;;;;;;4.45;3.65;;;;;;;15.67;54.46;101708.28;4996208;28;20038;-63
2023/05/13 00:42:49;;;;;;;4.22;3.80;;;;;;;15.66;53.42;101716.53;4994883;28;20022;-63
2023/05/13 00:45:15;;;;;;;5.32;2.80;;;;;;;15.59;54.06;101710.84;4976788;28;20057;-63
2023/05/13 00:47:41;;;;;;;3.58;2.88;;;;;;;15.52;54.47;101704.28;4994074;28;20080;-63
2023/05/13 00:50:08;;;;;;;4.50;3.20;;;;;;;15.50;55.42;101703.56;4976552;28;20510;-63
2023/05/13 00:52:36;;;;;;;3.92;3.53;;;;;;;15.50;54.00;101706.25;4976529;28;20026;-63
2023/05/13 00:55:02;;;;;;;7.97;4.30;;;;;;;15.49;55.36;101709.13;4976730;28;20022;-63
2023/05/13 00:57:28;;;;;;;6.63;4.70;;;;;;;15.51;54.39;101716.09;4976894;28;20018;-63
2023/05/13 00:59:54;;;;;;;5.90;4.43;;;;;;;15.49;55.53;101720.78;4976693;28;20034;-63
2023/05/13 01:02:41;;;;;;;9.85;4.68;;;;;;;15.49;54.81;101718.09;4977411;28;20034;-63
2023/05/13 01:05:13;;;;;;;5.75;4.30;;;;;;;15.50;54.12;101718.91;4976568;28;20044;-63
2023/05/13 01:08:06;;;;;;;6.35;4.22;;;;;;;15.51;53.94;101724.19;4993987;28;20117;-63
2023/05/13 01:10:44;;;;;;;5.40;4.13;;;;;;;15.46;54.41;101721.06;4993676;28;20050;-63
2023/05/13 01:13:17;;;;;;;6.85;3.78;;;;;;;15.37;55.43;101716.44;4960305;28;20509;-62
2023/05/13 01:15:55;;;;;;;2.55;2.33;;;;;;;15.29;54.44;101718.97;4960749;28;20030;-63
2023/05/13 01:18:36;;;;;;;5.10;3.03;;;;;;;15.20;55.63;101722.50;4976598;28;20066;-63
2023/05/13 01:21:02;;;;;;;5.38;3.75;;;;;;;15.16;55.07;101721.91;4976113;28;20042;-63
2023/05/13 01:23:28;;;;;;;5.00;3.35;;;;;;;15.16;54.79;101718.34;4976534;28;20034;-63
2023/05/13 01:25:53;;;;;;;5.45;3.97;;;;;;;15.16;55.89;101723.75;4993873;28;20046;-63
2023/05/13 01:28:18;;;;;;;6.68;4.85;;;;;;;15.16;55.10;101724.59;4995611;28;20030;-64
2023/05/13 01:30:45;;;;;;;6.55;4.75;;;;;;;15.15;55.04;101720.22;4977363;28;20026;-63
2023/05/13 01:33:10;;;;;;;6.35;4.57;;;;;;;15.15;55.90;101712.13;4976053;28;20046;-63
2023/05/13 01:35:36;;;;;;;6.47;4.65;;;;;;;15.12;54.35;101722.34;4975799;28;20425;-63
2023/05/13 01:38:03;;;;;;;7.80;4.47;;;;;;;15.12;54.74;101725.88;4976164;28;20506;-64
2023/05/13 01:40:28;;;;;;;7.88;4.72;;;;;;;15.06;55.62;101722.88;4976499;28;20034;-63
2023/05/13 01:42:54;;;;;;;5.13;4.57;;;;;;;15.04;54.95;101714.94;4994025;28;20395;-63
2023/05/13 01:45:19;;;;;;;5.57;4.07;;;;;;;15.03;54.50;101723.13;4976215;28;20038;-63
2023/05/13 01:47:45;;;;;;;6.25;4.45;;;;;;;14.98;54.54;101720.88;4975965;28;20045;-63
2023/05/13 01:50:10;;;;;;;4.05;3.13;;;;;;;14.93;55.54;101719.56;4993369;28;20121;-63
2023/05/13 01:52:36;;;;;;;6.22;3.38;;;;;;;14.89;54.91;101718.97;4993441;28;20043;-63
2023/05/13 01:55:01;;;;;;;4.03;3.03;;;;;;;14.88;55.61;101713.72;4975909;28;20457;-63
2023/05/13 01:57:26;;;;;;;4.90;3.78;;;;;;;14.86;55.19;101721.06;4976450;28;20029;-63
2023/05/13 01:59:52;;;;;;;5.80;4.13;;;;;;;14.83;55.34;101722.19;4959913;28;20038;-63
2023/05/13 02:02:18;;;;;;;6.38;4.18;;;;;;;14.78;55.51;101710.97;4977810;28;20065;-63
2023/05/13 02:04:43;;;;;;;6.82;5.18;;;;;;;14.85;55.01;101727.47;4977958;28;20084;-63
2023/05/13 02:07:08;;;;;;;10.35;5.45;;;;;;;14.85;55.16;101730.19;4975768;28;20022;-63
2023/05/13 02:09:34;;;;;;;9.38;5.50;;;;;;;14.78;55.50;101723.59;4976222;28;20035;-63
2023/05/13 02:12:00;;;;;;;10.60;5.35;;;;;;;14.76;55.78;101723.75;4975718;28;20027;-63
2023/05/13 02:14:25;;;;;;;7.35;5.18;;;;;;;14.73;55.64;101725.84;4975719;28;20057;-63
2023/05/13 02:16:50;;;;;;;5.28;4.15;;;;;;;14.69;55.02;101729.78;4975752;28;20031;-63
2023/05/13 02:19:16;;;;;;;9.38;4.60;;;;;;;14.63;56.29;101719.56;4960252;28;20534;-63
2023/05/13 02:21:42;;;;;;;6.40;5.10;;;;;;;14.60;56.42;101723.34;4993628;28;20076;-63
2023/05/13 02:24:07;;;;;;;6.63;4.60;;;;;;;14.65;55.23;101728.34;4975730;28;20041;-63
2023/05/13 02:26:33;;;;;;;8.25;6.30;;;;;;;14.65;56.24;101728.34;4975581;28;20038;-63
2023/05/13 02:28:58;;;;;;;7.20;5.32;;;;;;;14.68;55.20;101730.78;4975637;28;20050;-63
2023/05/13 02:31:24;;;;;;;13.02;5.60;;;;;;;14.69;55.42;101729.78;4975455;28;20065;-63
2023/05/13 02:33:49;;;;;;;6.20;4.82;;;;;;;14.66;56.39;101730.03;4993334;28;20022;-63
2023/05/13 02:36:15;;;;;;;4.15;3.58;;;;;;;14.58;54.83;101728.03;4993062;28;20035;-63
2023/05/13 02:38:40;;;;;;;4.25;3.65;;;;;;;14.52;56.17;101724.03;4975647;28;20023;-63
2023/05/13 02:41:06;;;;;;;5.97;4.43;;;;;;;14.49;55.11;101724.28;4974712;28;20038;-63
2023/05/13 02:43:31;;;;;;;7.75;5.15;;;;;;;14.45;55.18;101717.47;4993106;28;20030;-63
2023/05/13 02:45:56;;;;;;;7.70;5.93;;;;;;;14.45;55.63;101717.47;4992755;28;20390;-63
2023/05/13 02:48:22;;;;;;;9.18;6.10;;;;;;;14.44;55.61;101720.28;4977891;28;20066;-63
2023/05/13 02:50:47;;;;;;;7.93;5.65;;;;;;;14.41;55.76;101715.16;4978896;28;20034;-63
2023/05/13 02:53:12;;;;;;;9.45;6.18;;;;;;;14.41;55.34;101717.84;4996295;28;20042;-63
2023/05/13 02:55:38;;;;;;;5.63;4.72;;;;;;;14.39;56.62;101723.38;4978850;28;20506;-63
2023/05/13 02:58:03;;;;;;;6.95;4.82;;;;;;;14.37;56.32;101725.34;4978984;28;20077;-63
2023/05/13 03:00:29;;;;;;;6.45;3.00;;;;;;;14.33;56.59;101723.03;4979355;28;20464;-63
2023/05/13 03:02:55;;;;;;;4.45;2.88;;;;;;;14.29;55.21;101717.00;4978881;28;20057;-63
2023/05/13 03:05:20;;;;;;;9.20;4.38;;;;;;;14.26;56.79;101717.31;4978711;28;20035;-63
2023/05/13 03:07:46;;;;;;;6.50;4.90;;;;;;;14.26;55.94;101720.00;4978720;28;20034;-63
2023/05/13 03:10:12;;;;;;;7.65;4.53;;;;;;;14.25;56.17;101720.97;4997808;28;20470;-63
2023/05/13 03:12:38;;;;;;;7.43;5.00;;;;;;;14.21;56.57;101719.50;4978992;28;20038;-63
2023/05/13 03:15:03;;;;;;;7.22;3.83;;;;;;;14.16;55.60;101710.13;4978586;28;20524;-63
2023/05/13 03:17:30;;;;;;;54.65;4.82;;;;;;;14.12;55.77;101720.31;4978554;28;20035;-63
2023/05/13 03:19:56;;;;;;;8.43;3.10;;;;;;;14.12;55.27;101725.72;4995737;28;20066;-63
2023/05/13 03:22:21;;;;;;;6.57;4.75;;;;;;;14.10;56.54;101727.66;4978375;28;20035;-63
2023/05/13 03:24:47;;;;;;;11.57;6.57;;;;;;;14.10;55.46;101733.03;4978710;28;20371;-63
2023/05/13 03:27:12;;;;;;;5.90;4.03;;;;;;;14.06;55.42;101723.53;4978122;28;20041;-63
2023/05/13 03:29:38;;;;;;;5.15;4.20;;;;;;;14.04;55.46;101722.81;4995599;28;20043;-63
2023/05/13 03:32:05;;;;;;;9.45;4.63;;;;;;;14.06;55.57;101725.34;4961781;28;20062;-63
2023/05/13 03:34:31;;;;;;;10.30;6.32;;;;;;;14.06;55.31;101725.34;4978394;28;20088;-63
2023/05/13 03:36:56;;;;;;;6.55;5.15;;;;;;;14.08;56.62;101720.69;4995400;28;20114;-63
2023/05/13 03:39:21;;;;;;;7.50;5.63;;;;;;;14.05;55.54;101724.50;4996059;28;20018;-63
2023/05/13 03:41:47;;;;;;;10.07;6.65;;;;;;;14.06;55.54;101726.22;4962042;28;20446;-63
2023/05/13 03:44:12;;;;;;;11.77;6.65;;;;;;;14.05;56.43;101721.81;4995727;28;20034;-63
2023/05/13 03:46:38;;;;;;;9.43;6.25;;;;;;;13.97;55.38;101711.69;4995430;28;20503;-63
2023/05/13 03:49:03;;;;;;;9.40;5.75;;;;;;;14.01;55.80;101720.38;4995679;28;20065;-63
2023/05/13 03:51:28;;;;;;;10.52;6.30;;;;;;;14.00;56.71;101729.44;4978633;28;20026;-63
2023/05/13 03:53:54;;;;;;;8.50;6.20;;;;;;;13.98;55.20;101726.88;4995433;28;20041;-63
2023/05/13 03:56:20;;;;;;;8.27;5.93;;;;;;;13.99;56.41;101730.41;4997087;28;20054;-63
2023/05/13 03:58:45;;;;;;;7.38;5.68;;;;;;;14.02;56.50;101743.63;4979625;28;20157;-63
2023/05/13 04:01:11;;;;;;;11.48;6.10;;;;;;;14.02;56.33;101730.16;4978864;28;20465;-63
2023/05/13 04:03:36;;;;;;;11.93;6.90;;;;;;;14.07;56.92;101743.25;4978150;28;20025;-63
2023/05/13 04:06:01;;;;;;;9.05;6.32;;;;;;;14.08;56.18;101737.72;4994990;28;20502;-63
2023/05/13 04:08:27;;;;;;;10.25;6.50;;;;;;;14.10;55.39;101738.44;4994619;28;20027;-64
2023/05/13 04:10:53;;;;;;;9.45;6.55;;;;;;;14.09;55.62;101736.75;4994744;28;20041;-63
2023/05/13 04:13:18;;;;;;;14.45;6.78;;;;;;;14.08;56.14;101735.03;4977939;28;20110;-63
2023/05/13 04:15:44;;;;;;;11.40;6.20;;;;;;;14.09;56.40;101741.28;4978045;28;20129;-63
2023/05/13 04:18:09;;;;;;;7.97;5.90;;;;;;;14.09;55.82;101731.34;4994694;28;20030;-63
2023/05/13 04:20:38;;;;;;;6.93;5.32;;;;;;;14.18;55.76;101730.53;4994762;28;20030;-63
2023/05/13 04:23:04;;;;;;;10.60;6.10;;;;;;;14.26;55.94;101744.25;4994652;28;20407;-63
2023/05/13 04:25:29;;;;;;;9.30;7.15;;;;;;;14.37;55.66;101741.53;4961101;28;20524;-63
2023/05/13 04:27:55;;;;;;;9.45;7.28;;;;;;;14.47;55.45;101747.84;4995358;28;20474;-63
2023/05/13 04:30:20;;;;;;;8.07;5.78;;;;;;;14.57;55.56;101737.94;4977280;28;20045;-64
2023/05/13 04:32:46;;;;;;;8.70;5.75;;;;;;;14.63;55.50;101731.16;4974401;28;20055;-63
2023/05/13 04:35:12;;;;;;;12.68;7.20;;;;;;;14.76;56.40;101747.16;4975167;28;20038;-63
2023/05/13 04:37:37;;;;;;;10.57;7.50;;;;;;;14.83;56.08;101749.19;4974935;28;20042;-63
2023/05/13 04:40:03;;;;;;;11.07;6.93;;;;;;;14.91;55.67;101745.81;4973711;28;20050;-63
2023/05/13 04:42:28;;;;;;;10.70;7.47;;;;;;;14.97;56.31;101754.22;4957927;28;20045;-63
2023/05/13 04:44:54;;;;;;;8.75;6.40;;;;;;;15.02;55.40;101748.41;4975818;28;20031;-63
2023/05/13 04:47:19;;;;;;;12.38;7.18;;;;;;;15.06;56.73;101748.03;4973959;28;20518;-63
2023/05/13 04:49:44;;;;;;;10.23;6.45;;;;;;;15.09;55.66;101744.19;4974762;28;20394;-63
2023/05/13 04:52:11;;;;;;;10.00;7.35;;;;;;;15.10;55.71;101745.91;4973718;28;20026;-63
2023/05/13 04:54:38;;;;;;;11.73;6.68;;;;;;;15.12;56.91;101743.94;4973887;28;20029;-63
2023/05/13 04:57:03;;;;;;;7.80;6.68;;;;;;;15.12;55.44;101749.31;4974486;28;20405;-63
2023/05/13 04:59:29;;;;;;;10.77;7.22;;;;;;;15.11;56.50;101750.28;4974694;28;20031;-63
2023/05/13 05:01:55;;;;;;;9.55;6.70;;;;;;;15.16;56.78;101750.75;4973551;28;20026;-63
2023/05/13 05:04:20;;;;;;;10.80;7.68;;;;;;;15.18;55.52;101756.03;4973279;28;20164;-63
2023/05/13 05:06:46;;;;;;;9.70;7.30;;;;;;;15.23;55.33;101754.63;4973840;28;20097;-63
2023/05/13 05:09:12;;;;;;;11.00;6.93;;;;;;;15.37;55.44;101754.25;4974359;28;20034;-64
2023/05/13 05:11:37;;;;;;;10.27;6.55;;;;;;;15.54;55.80;101755.47;4973711;28;20034;-63
2023/05/13 05:14:02;;;;;;;12.60;8.00;;;;;;;15.71;55.87;101762.91;4974624;28;20117;-63
2023/05/13 05:16:28;;;;;;;10.93;7.10;;;;;;;15.89;55.39;101752.22;4973597;28;20041;-63
2023/05/13 05:18:53;;;;;;;15.38;7.28;;;;;;;16.09;54.78;101762.06;4959378;28;20033;-64
2023/05/13 05:21:19;;;;;;;9.38;7.07;;;;;;;16.29;54.98;101763.78;4975137;28;20050;-64
2023/05/13 05:23:44;;;;;;;9.40;6.47;;;;;;;16.50;55.81;101758.22;4975412;28;20066;-63
2023/05/13 05:26:09;;;;;;;12.60;8.02;;;;;;;16.74;54.82;101767.59;4974013;28;20038;-64
2023/05/13 05:28:37;;;;;;;10.55;7.70;;;;;;;16.95;55.63;101761.97;4972945;28;20031;-63
2023/05/13 05:31:04;;;;;;;12.20;7.72;;;;;;;17.19;54.61;101756.03;4974301;28;20098;-63
2023/05/13 05:33:29;;;;;;;10.55;7.07;;;;;;;17.40;54.31;101759.34;4973184;28;20046;-63
2023/05/13 05:35:54;;;;;;;13.02;8.20;;;;;;;17.63;54.25;101757.13;4972838;28;20042;-63
2023/05/13 05:38:20;;;;;;;10.43;7.68;;;;;;;17.79;54.75;101769.00;4972973;28;20037;-63
2023/05/13 05:40:45;;;;;;;14.20;7.78;;;;;;;18.01;54.04;101767.69;4957156;28;20042;-63
2023/05/13 05:43:11;;;;;;;12.60;7.53;;;;;;;18.22;53.89;101770.09;4974119;28;20101;-63
2023/05/13 05:45:37;;;;;;;15.35;7.60;;;;;;;18.39;53.18;101761.97;4973248;28;20508;-63
2023/05/13 05:48:03;;;;;;;11.68;7.00;;;;;;;18.58;53.38;101767.22;4972314;28;20115;-65
2023/05/13 05:50:29;;;;;;;10.90;7.18;;;;;;;18.78;52.74;101767.88;4972863;28;20122;-63
2023/05/13 05:52:55;;;;;;;11.48;6.80;;;;;;;18.97;52.99;101764.94;4974903;28;20034;-66
2023/05/13 05:55:21;;;;;;;10.70;6.85;;;;;;;19.18;52.59;101765.41;4958771;28;20443;-64
2023/05/13 05:57:46;;;;;;;10.40;6.35;;;;;;;19.41;52.30;101763.00;4975272;28;20061;-65
2023/05/13 06:00:12;;;;;;;8.68;6.50;;;;;;;19.66;52.10;101781.09;4972746;28;20023;-65
2023/05/13 06:02:38;;;;;;;11.68;7.13;;;;;;;19.89;51.35;101767.72;4974021;28;20499;-64
2023/05/13 06:05:05;;;;;;;12.82;7.03;;;;;;;20.14;51.61;101774.91;4974026;28;20410;-66
2023/05/13 06:07:30;;;;;;;9.98;7.30;;;;;;;20.39;50.84;101769.50;4974018;28;20031;-66
2023/05/13 06:09:56;;;;;;;9.20;6.47;;;;;;;20.65;50.69;101760.16;4972890;28;20037;-65
2023/05/13 06:12:21;;;;;;;9.55;6.32;;;;;;;20.86;50.72;101765.91;4974409;28;20015;-64
2023/05/13 06:14:47;;;;;;;8.88;6.32;;;;;;;21.12;49.92;101765.72;4972519;28;20495;-64
2023/05/13 06:17:13;;;;;;;12.93;6.43;;;;;;;21.36;49.63;101765.63;4972507;28;20026;-64
2023/05/13 06:19:41;;;;;;;7.80;5.88;;;;;;;21.59;49.17;101773.88;4972375;28;20045;-65
2023/05/13 06:22:07;;;;;;;9.30;6.68;;;;;;;21.79;48.59;101766.09;4958410;28;20027;-64
2023/05/13 06:24:32;;;;;;;8.85;6.35;;;;;;;22.04;48.22;101773.13;4976487;28;20027;-64
2023/05/13 06:26:58;;;;;;;8.98;6.28;;;;;;;22.25;48.67;101765.13;4977608;28;20529;-64
2023/05/13 06:29:23;;;;;;;13.10;6.35;;;;;;;22.44;47.64;101767.38;4976448;28;20089;-64
2023/05/13 06:31:49;;;;;;;9.50;6.95;;;;;;;22.65;47.75;101765.84;4976202;28;20045;-65
2023/05/13 06:34:15;;;;;;;9.30;6.05;;;;;;;22.87;47.68;101759.47;4996610;28;20098;-65
2023/05/13 06:36:41;;;;;;;11.27;6.03;;;;;;;23.10;47.04;101765.72;4996809;28;20032;-65
2023/05/13 06:39:07;;;;;;;10.20;6.20;;;;;;;23.32;47.30;101763.94;4992372;28;20034;-65
2023/05/13 06:41:32;;;;;;;8.90;5.88;;;;;;;23.55;46.54;101762.81;4995268;28;20030;-64
2023/05/13 06:43:58;;;;;;;7.82;5.68;;;;;;;23.75;46.37;101766.66;4962764;28;20039;-64
2023/05/13 06:46:23;;;;;;;8.25;5.85;;;;;;;23.96;46.04;101774.03;4978960;28;20030;-63
2023/05/13 06:48:51;;;;;;;10.80;6.32;;;;;;;24.19;46.06;101771.16;4995480;28;20494;-64
2023/05/13 06:51:16;;;;;;;11.43;6.05;;;;;;;24.41;45.38;101777.47;4995003;28;20461;-64
2023/05/13 06:53:41;;;;;;;7.53;5.85;;;;;;;24.55;44.88;101782.91;4978855;28;20034;-64
2023/05/13 06:56:07;;;;;;;8.95;6.03;;;;;;;24.74;44.74;101771.25;4995081;28;20034;-64
2023/05/13 06:58:32;;;;;;;6.70;5.43;;;;;;;24.97;44.40;101772.91;4996532;28;20035;-64
2023/05/13 07:00:58;;;;;;;10.68;6.78;;;;;;;25.19;44.16;101774.53;4995215;28;20022;-63
2023/05/13 07:03:23;;;;;;;11.60;6.00;;;;;;;25.40;43.57;101774.47;4979354;28;20096;-65
2023/05/13 07:05:48;;;;;;;7.75;6.10;;;;;;;25.59;43.49;101771.00;4995041;28;20058;-65
2023/05/13 07:08:16;;;;;;;6.45;5.07;;;;;;;25.81;43.25;101768.97;4996252;28;20522;-64
2023/05/13 07:10:42;;;;;;;10.60;6.57;;;;;;;26.10;42.60;101776.03;4963380;28;20026;-64
2023/05/13 07:13:07;;;;;;;12.95;6.03;;;;;;;26.33;41.78;101771.00;4994852;28;20081;-65
2023/05/13 07:15:33;;;;;;;9.25;5.78;;;;;;;26.50;42.02;101773.16;4995160;28;20061;-64
2023/05/13 07:17:58;;;;;;;10.13;6.05;;;;;;;26.66;41.67;101771.91;4962449;28;20081;-64
2023/05/13 07:20:25;;;;;;;14.85;5.32;;;;;;;26.88;41.36;101770.66;4995242;28;20088;-65
2023/05/13 07:22:50;;;;;;;9.80;5.95;;;;;;;27.12;41.03;101772.72;4978920;28;20498;-64
2023/05/13 07:25:17;;;;;;;7.20;5.10;;;;;;;27.31;40.11;101765.47;4996146;28;20042;-64
2023/05/13 07:27:42;;;;;;;10.80;6.57;;;;;;;27.48;39.85;101776.88;4979108;28;20456;-64
2023/05/13 07:30:10;;;;;;;8.30;5.90;;;;;;;27.66;40.39;101768.78;4995798;28;20069;-65
2023/05/13 07:32:35;;;;;;;8.52;5.88;;;;;;;27.92;39.30;101778.84;4994466;28;20046;-64
2023/05/13 07:35:02;;;;;;;8.02;6.38;;;;;;;28.18;39.09;101773.19;4977928;28;20455;-64
2023/05/13 07:37:27;;;;;;;6.97;5.97;;;;;;;28.35;38.66;101779.84;4978083;28;20399;-66
2023/05/13 07:39:53;;;;;;;7.75;6.07;;;;;;;28.09;39.29;101775.34;4978765;28;20058;-69
2023/05/13 07:42:18;;;;;;;8.85;5.32;;;;;;;27.92;38.96;101768.63;4994425;28;20376;-69
2023/05/13 07:44:44;;;;;;;9.73;5.65;;;;;;;27.77;38.52;101772.75;4978338;28;20038;-69
2023/05/13 07:47:09;;;;;;;9.43;6.40;;;;;;;27.61;38.29;101765.84;4964398;28;20037;-70
2023/05/13 07:49:34;;;;;;;5.95;5.35;;;;;;;27.51;38.73;101765.44;4982196;28;20500;-70
2023/05/13 07:52:00;;;;;;;10.63;6.47;;;;;;;27.44;39.27;101767.38;4996429;28;20042;-70
2023/05/13 07:54:27;;;;;;;11.40;5.78;;;;;;;27.38;38.52;101770.97;4978789;28;20516;-70
2023/05/13 07:56:52;;;;;;;8.07;5.97;;;;;;;27.35;39.38;101794.28;4994312;28;20038;-70
2023/05/13 07:59:18;;;;;;;7.65;5.38;;;;;;;27.36;39.02;101789.63;4994369;28;20035;-70
2023/05/13 08:01:44;;;;;;;6.50;5.57;;;;;;;27.37;38.72;101772.03;4994387;28;20406;-69
2023/05/13 08:04:09;;;;;;;7.65;5.40;;;;;;;27.42;39.09;101778.59;4994156;28;20409;-70
2023/05/13 08:06:34;;;;;;;9.02;5.93;;;;;;;27.46;38.76;101784.53;4994472;28;20080;-70
2023/05/13 08:09:00;;;;;;;7.78;5.80;;;;;;;27.52;38.87;101790.03;4993822;28;20038;-70
2023/05/13 08:11:26;;;;;;;10.45;6.50;;;;;;;27.59;38.89;101784.47;4993992;28;20537;-70
2023/05/13 08:13:51;;;;;;;7.53;5.80;;;;;;;27.64;39.11;101776.41;4993940;28;20034;-70
2023/05/13 08:16:17;;;;;;;9.25;5.95;;;;;;;27.71;38.63;101778.06;4977689;28;20034;-70
2023/05/13 08:18:42;;;;;;;9.77;5.95;;;;;;;27.78;38.52;101786.28;4962100;28;20022;-70
2023/05/13 08:21:08;;;;;;;7.85;6.28;;;;;;;27.90;37.97;101787.31;4977911;28;20026;-70
2023/05/13 08:23:35;;;;;;;6.85;5.85;;;;;;;28.03;37.92;101775.41;4977903;28;20038;-70
2023/05/13 08:26:01;;;;;;;9.93;5.80;;;;;;;28.13;37.97;101776.63;4993903;28;20490;-70
2023/05/13 08:28:28;;;;;;;13.45;6.78;;;;;;;28.24;38.12;101773.16;4977544;28;20045;-70
2023/05/13 08:30:53;;;;;;;6.55;5.90;;;;;;;28.34;38.37;101777.34;4978429;28;20038;-70
2023/05/13 08:33:19;;;;;;;8.93;6.20;;;;;;;28.44;38.26;101774.91;4977511;28;20042;-70
2023/05/13 08:35:45;;;;;;;11.80;6.22;;;;;;;28.54;37.99;101778.00;4961730;28;20034;-70
2023/05/13 08:38:10;;;;;;;10.85;7.03;;;;;;;28.66;38.38;101784.53;4977534;28;20046;-70
2023/05/13 08:40:36;;;;;;;8.48;5.97;;;;;;;28.77;37.97;101783.78;4993456;28;20493;-70
2023/05/13 08:43:03;;;;;;;7.25;6.45;;;;;;;28.88;37.57;101794.09;4977070;28;20037;-70
2023/05/13 08:45:30;;;;;;;8.45;6.25;;;;;;;28.95;37.15;101778.31;4976513;28;20027;-70
2023/05/13 08:48:01;;;;;;;9.93;6.78;;;;;;;29.04;36.91;101768.66;4993243;28;20034;-70
2023/05/13 08:50:30;;;;;;;11.40;6.82;;;;;;;29.21;36.81;101782.72;4993569;28;20044;-70
2023/05/13 08:52:59;;;;;;;10.02;7.32;;;;;;;29.29;36.96;101783.31;4993259;28;20030;-70
2023/05/13 08:55:25;;;;;;;10.13;6.55;;;;;;;29.37;36.90;101780.22;4976947;28;20501;-70
2023/05/13 08:57:51;;;;;;;10.80;6.93;;;;;;;29.38;36.65;101787.44;4993583;28;20034;-69
2023/05/13 09:00:17;;;;;;;11.05;7.45;;;;;;;29.50;37.02;101790.28;4994701;28;20578;-70
2023/05/13 09:02:43;;;;;;;10.38;6.88;;;;;;;29.62;36.64;101787.63;4992999;28;20030;-70
2023/05/13 09:05:09;;;;;;;11.90;6.15;;;;;;;29.72;35.88;101776.84;4976944;28;20088;-70
2023/05/13 09:07:36;;;;;;;9.10;7.28;;;;;;;29.83;36.01;101778.84;4993164;28;20034;-70
2023/05/13 09:10:02;;;;;;;8.10;6.60;;;;;;;29.91;36.27;101764.72;4993017;28;20030;-70
2023/05/13 09:12:53;;;;;;;9.15;6.40;;;;;;;30.03;35.80;101768.38;4993273;28;20065;-70
2023/05/13 09:15:23;;;;;;;6.75;5.72;;;;;;;30.18;35.73;101767.97;4992723;28;20038;-70
2023/05/13 09:17:51;;;;;;;7.68;6.65;;;;;;;30.30;35.97;101775.19;4993842;28;20030;-70
2023/05/13 09:20:18;;;;;;;7.50;5.85;;;;;;;30.45;35.59;101759.03;4992801;28;20030;-70
2023/05/13 09:22:47;;;;;;;8.73;6.38;;;;;;;30.57;35.33;101767.34;4992801;28;20041;-70
2023/05/13 09:25:15;;;;;;;10.38;7.10;;;;;;;30.68;34.76;101757.38;4992783;28;20498;-70
2023/05/13 09:28:01;;;;;;;12.20;5.70;;;;;;;30.80;34.86;101763.75;4994900;28;20038;-70
2023/05/13 09:30:29;;;;;;;8.35;6.47;;;;;;;30.88;34.54;101758.69;4992313;28;20055;-70
2023/05/13 09:33:03;;;;;;;8.75;6.63;;;;;;;30.99;34.91;101757.06;4991242;28;20053;-70
2023/05/13 09:35:30;;;;;;;9.93;7.35;;;;;;;31.09;34.39;101751.75;4993670;28;20034;-70
2023/05/13 09:37:57;;;;;;;8.88;7.07;;;;;;;31.18;34.74;101747.53;4992368;28;20080;-71
2023/05/13 09:40:22;;;;;;;7.13;5.88;;;;;;;31.27;34.60;101743.28;4993735;28;20038;-70
2023/05/13 09:42:48;;;;;;;10.77;5.70;;;;;;;31.40;33.78;101734.75;4992929;28;20030;-70
2023/05/13 09:45:14;;;;;;;6.70;5.35;;;;;;;31.50;34.15;101737.75;4992925;28;20109;-70
2023/05/13 09:47:41;;;;;;;9.52;6.53;;;;;;;31.62;34.17;101746.88;4993951;28;20085;-70
2023/05/13 09:50:07;;;;;;;8.40;5.50;;;;;;;31.69;33.86;101736.47;4995783;28;20134;-71
2023/05/13 09:52:34;;;;;;;8.65;5.30;;;;;;;31.80;33.71;101739.47;4976214;28;20041;-71
2023/05/13 09:55:00;;;;;;;9.48;5.95;;;;;;;31.89;33.67;101743.50;4992188;28;20050;-70
2023/05/13 09:57:27;;;;;;;9.98;5.47;;;;;;;31.99;33.30;101741.78;4978849;28;20109;-71
2023/05/13 09:59:56;;;;;;;6.55;5.43;;;;;;;32.09;32.80;101739.22;4997425;28;20034;-70
2023/05/13 10:02:23;;;;;;;11.07;5.68;;;;;;;32.20;33.48;101738.31;4996297;28;20050;-71
2023/05/13 10:04:49;;;;;;;7.95;5.65;;;;;;;32.33;32.58;101728.81;4996520;28;20034;-71
2023/05/13 10:07:15;;;;;;;7.88;5.55;;;;;;;32.45;32.46;101740.69;4996253;28;20180;-71
2023/05/13 10:09:42;;;;;;;5.22;4.53;;;;;;;32.56;32.03;101734.25;4997426;28;20037;-71
2023/05/13 10:12:08;;;;;;;5.35;4.07;;;;;;;32.66;32.34;101734.44;4997134;28;20403;-71
2023/05/13 10:14:36;;;;;;;4.70;3.35;;;;;;;32.71;32.71;101726.16;4996001;28;20030;-70
2023/05/13 10:17:02;;;;;;;5.40;3.90;;;;;;;32.82;31.73;101724.38;4997279;28;20117;-71
2023/05/13 10:19:27;;;;;;;5.13;4.32;;;;;;;32.93;32.40;101726.22;4995812;28;20110;-70
2023/05/13 10:21:53;;;;;;;4.07;3.25;;;;;;;33.04;31.57;101710.53;4996266;28;20053;-71
2023/05/13 10:24:20;;;;;;;7.13;3.65;;;;;;;33.12;31.53;101705.41;4979623;28;20494;-70
2023/05/13 10:26:47;;;;;;;7.53;3.40;;;;;;;33.25;31.16;101707.00;4997237;28;20065;-71
2023/05/13 10:29:12;;;;;;;6.22;3.08;;;;;;;33.35;31.40;101707.94;4979310;28;20034;-70
2023/05/13 10:31:38;;;;;;;6.03;2.97;;;;;;;33.45;30.84;101710.00;4996880;28;20501;-70
2023/05/13 10:34:04;;;;;;;3.90;2.63;;;;;;;33.58;30.11;101695.75;4995823;28;20104;-71
2023/05/13 10:37:09;;;;;;;4.40;3.67;;;;;;;33.75;29.94;101701.22;4979808;28;20022;-70
2023/05/13 10:39:55;;;;;;;5.85;3.10;;;;;;;33.92;30.85;101697.22;4981466;28;20043;-71
2023/05/13 10:42:39;;;;;;;3.63;2.70;;;;;;;34.05;30.72;101693.19;5000104;28;20034;-71
2023/05/13 10:45:06;;;;;;;8.23;3.10;;;;;;;34.19;30.18;101696.41;4981828;28;20169;-71
2023/05/13 10:47:33;;;;;;;3.20;2.60;;;;;;;34.34;30.22;101690.97;4995547;28;20101;-70
2023/05/13 10:50:03;;;;;;;7.60;4.32;;;;;;;34.46;29.12;101697.19;4995659;28;20057;-71
2023/05/13 10:52:45;;;;;;;7.70;2.67;;;;;;;34.59;30.14;101684.78;4979815;28;20034;-70
2023/05/13 10:55:15;;;;;;;3.35;2.40;;;;;;;34.69;29.01;101674.56;4995207;28;20093;-70
2023/05/13 10:57:41;;;;;;;5.82;3.00;;;;;;;34.80;29.05;101684.66;4979448;28;20029;-70
2023/05/13 11:00:14;;;;;;;4.90;3.17;;;;;;;34.93;29.63;101692.50;4996461;28;20031;-71
2023/05/13 11:02:39;;;;;;;8.65;3.35;;;;;;;35.00;28.66;101681.13;4995283;28;20533;-71
2023/05/13 11:05:06;;;;;;;6.15;2.90;;;;;;;35.13;28.50;101669.53;5014660;28;20037;-71
2023/05/13 11:07:36;;;;;;;6.63;3.05;;;;;;;35.29;28.18;101673.22;5035381;28;20025;-71
2023/05/13 11:10:02;;;;;;;3.92;2.50;;;;;;;35.41;28.31;101687.75;5000518;28;20072;-71
2023/05/13 11:12:29;;;;;;;3.35;2.90;;;;;;;35.51;27.97;101676.66;5018260;28;20056;-71
2023/05/13 11:14:55;;;;;;;6.47;3.33;;;;;;;35.69;28.36;101675.31;5017638;28;20128;-71
2023/05/13 11:17:20;;;;;;;3.83;2.60;;;;;;;35.86;27.85;101671.19;5017840;28;20143;-71
2023/05/13 11:19:49;;;;;;;5.40;2.58;;;;;;;36.02;27.69;101672.88;5017986;28;20071;-71